Decoded Metar for CYWK (WABUSH in NL, CANADA) (IATA:YWK) | Meteo·Mobile Aviation Weather
aviador You're here:

CYWK Decoded Metar

WABUSH in NL, CANADA
Report Time2018-10-23 01:00:00
UTC Time2018-10-23 01:22:05
Flight Rules mvfr MVFR
Wind020° at 08 kt
W.Decomp.*RWY 36: 6.0 kt HW 5.2 kt RCW
W.Rank020° ranks 19
Current wind is below 020° avg. (8.3)
Visibility6437 m
Phenomena:Low Drifting Snow
Light Snow
Clouds:Scattered 017 Hf
Overcast 035 Hf
Expected CloudBase > 800 ft AGL from Temp-Dew spread
Ceiling3,500 ft
Temp-5°C (ISA -16)
Dew Point-7°C (86% RH)
AAT-10.7°C
QNH1014 hPa
Density Alt-187 ft
Elevation1,808 ft
Report Wrong Elevation
Raw Report
CYWK 230100Z 02008KT 4SM -SN DRSN SCT017 OVC035 M05/M07 A2993 RMK
CF4SC4 LAST STFD OBS/NEXT 23 0900 UTC/ SLP172=

Extra information for CYWK:More info

Metar Taf Metar & Taf Last 4 Metars F.Rules Stats Wind Profile Meteogram Temp Stats Airport Information Weather charts Add Link Nearby VenuesMetar ALERT Operation Metar Decoded Social comments